Willow Bend, West Virginia
Current Conditions -  °F | °C
As of 12:55 AM on Tuesday 27 Jan 2015 (Local Time) from KLWB Reporting Station
Overcast Overcast  
Wind Chill: 16°   Ceiling: 1500
Heat Index: 25°   Visibility: 10mi
Dew Point: 20°   Wind: 8mph
Humidity: 82%   Direction: 300°WNW
Pressure: 29.75"   Gusts: NA
Location:  37.5611°N, 80.5102°W
Report Text: KLWB 270555Z AUTO 30007KT 10SM OVC015 M04/M06 A2975 RMK AO2 T10381065 11020 21040
Loading
Personal Weather Stations






























Interactive Weather Map New forecast layout! Learn more

10-Day Weather Forecast

Advertisements
Track Severe Weather on mobile